Alexander, Kansas
Current Conditions -  °F | °C
As of 5:55 PM on Saturday 22 Nov 2014 (Local Time) from KHYS Reporting Station
Clear Clear  
Wind Chill: 54°   Ceiling: Unl
Heat Index: 54°   Visibility: 10mi
Dew Point: 41°   Wind: 12mph
Humidity: 62%   Direction: 170°S
Pressure: 29.6"   Gusts: NA
Location:  38.47°N, 99.55°W
Report Text: KHYS 222355Z AUTO 17010KT 10SM CLR 12/05 A2960 RMK AO1 10190 20110 401901020 57017
Loading
Personal Weather Stations






























Interactive Weather Map New forecast layout! Learn more

10-Day Weather Forecast

Advertisements
Track Severe Weather on mobile